Time;durP1;ratioP1;P1;durP2;ratioP2;P2;SDS_P1;SDS_P2;PMS_P1;PMS_P2;Temp;Humidity;BMP_temperature;BMP_pressure;BME280_temperature;BME280_humidity;BME280_pressure;Samples;Min_cycle;Max_cycle;Signal;HPM_P1;HPM_P2
2023/07/14 00:00:34;;;;;;;6.07;3.45;;;;;;;11.12;100.00;93412.06;2543620;23;20013;-82
2023/07/14 00:01:35;;;;;;;4.88;3.08;;;;;;;11.01;100.00;93410.31;2558608;23;20013;-81
2023/07/14 00:02:37;;;;;;;5.28;3.15;;;;;;;10.96;100.00;93416.16;2555695;23;20431;-83
2023/07/14 00:03:38;;;;;;;4.30;2.92;;;;;;;11.08;100.00;93402.19;2531055;23;20377;-80
2023/07/14 00:04:40;;;;;;;5.53;3.53;;;;;;;10.99;100.00;93407.31;2531314;23;20089;-81
2023/07/14 00:05:41;;;;;;;4.35;2.80;;;;;;;10.95;100.00;93405.88;2544003;23;20005;-82
2023/07/14 00:06:45;;;;;;;5.28;3.30;;;;;;;10.92;100.00;93399.41;2554919;23;20112;-80
2023/07/14 00:07:48;;;;;;;5.85;3.35;;;;;;;10.89;100.00;93405.59;2543909;23;20456;-80
2023/07/14 00:08:50;;;;;;;6.35;3.00;;;;;;;10.81;100.00;93404.97;2545074;23;20048;-82
2023/07/14 00:09:51;;;;;;;4.10;2.88;;;;;;;10.70;100.00;93398.28;2558020;23;20009;-82
2023/07/14 00:10:53;;;;;;;4.65;3.47;;;;;;;10.67;100.00;93402.56;2544315;23;20415;-81
2023/07/14 00:11:54;;;;;;;10.23;3.30;;;;;;;10.77;100.00;93392.84;2532224;23;20082;-81
2023/07/14 00:12:55;;;;;;;8.82;3.20;;;;;;;10.77;100.00;93392.84;2556417;23;20009;-82
2023/07/14 00:13:57;;;;;;;4.32;3.08;;;;;;;10.76;100.00;93396.69;2556147;23;20013;-81
2023/07/14 00:14:58;;;;;;;3.63;2.90;;;;;;;10.70;100.00;93384.94;2556423;23;20005;-83
2023/07/14 00:15:59;;;;;;;3.13;2.80;;;;;;;10.73;100.00;93398.25;2544254;23;20031;-81
2023/07/14 00:17:00;;;;;;;8.45;3.13;;;;;;;10.79;100.00;93393.16;2555896;23;20016;-81
2023/07/14 00:18:16;;;;;;;6.80;3.00;;;;;;;10.77;100.00;93393.59;2568350;23;20015;-82
2023/07/14 00:19:18;;;;;;;5.72;2.80;;;;;;;10.81;100.00;93396.19;2572009;23;20555;-82
2023/07/14 00:20:28;;;;;;;4.72;3.13;;;;;;;10.70;100.00;93398.28;2556560;23;20072;-83
2023/07/14 00:21:30;;;;;;;5.40;2.90;;;;;;;10.70;100.00;93403.63;2535502;23;20006;-81
2023/07/14 00:22:31;;;;;;;8.60;3.63;;;;;;;10.66;100.00;93394.94;2544141;23;20124;-81
2023/07/14 00:23:32;;;;;;;11.90;3.13;;;;;;;10.63;100.00;93393.09;2544259;23;20005;-80
2023/07/14 00:24:33;;;;;;;4.45;3.38;;;;;;;10.58;100.00;93389.72;2531251;23;20009;-81
2023/07/14 00:25:34;;;;;;;8.88;3.35;;;;;;;10.70;100.00;93388.34;2543818;23;20340;-81
2023/07/14 00:26:35;;;;;;;7.47;3.17;;;;;;;10.62;100.00;93386.22;2555932;23;20347;-82
2023/07/14 00:27:36;;;;;;;9.43;3.22;;;;;;;10.71;100.00;93395.22;2543449;23;20009;-82
2023/07/14 00:28:38;;;;;;;4.88;3.25;;;;;;;10.65;100.00;93398.78;2544648;23;20340;-82
2023/07/14 00:29:40;;;;;;;3.92;2.90;;;;;;;10.62;100.00;93394.22;2544060;23;20060;-80
2023/07/14 00:30:41;;;;;;;5.47;3.10;;;;;;;10.58;100.00;93387.06;2531693;23;20006;-81
2023/07/14 00:31:42;;;;;;;4.50;3.60;;;;;;;10.55;100.00;93390.53;2534955;23;20070;-82
2023/07/14 00:32:43;;;;;;;8.30;3.20;;;;;;;10.58;100.00;93391.66;2556455;23;20025;-81
2023/07/14 00:33:52;;;;;;;7.32;3.42;;;;;;;10.52;100.00;93390.59;2556625;23;20009;-82
2023/07/14 00:34:53;;;;;;;8.52;3.78;;;;;;;10.42;100.00;93388.84;2559484;23;20089;-81
2023/07/14 00:35:54;;;;;;;8.80;3.55;;;;;;;10.44;100.00;93394.53;2581832;23;20438;-84
2023/07/14 00:36:55;;;;;;;6.28;3.60;;;;;;;10.46;100.00;93389.56;2581956;23;20037;-81
2023/07/14 00:37:57;;;;;;;8.73;2.83;;;;;;;10.42;100.00;93396.88;2569346;23;20009;-80
2023/07/14 00:38:58;;;;;;;5.38;3.35;;;;;;;10.46;100.00;93392.22;2557632;23;20012;-82
2023/07/14 00:39:59;;;;;;;6.05;3.40;;;;;;;10.57;100.00;93395.47;2556711;23;20012;-81
2023/07/14 00:41:01;;;;;;;5.65;3.47;;;;;;;10.57;100.00;93387.44;2543872;23;20029;-81
2023/07/14 00:42:03;;;;;;;5.18;3.40;;;;;;;10.56;100.00;93389.38;2545140;23;20005;-85
2023/07/14 00:43:11;;;;;;;6.90;3.58;;;;;;;10.53;100.00;93386.75;2544610;23;20025;-82
2023/07/14 00:44:14;;;;;;;4.95;3.38;;;;;;;10.49;100.00;93386.81;2559702;23;20038;-82
2023/07/14 00:45:20;;;;;;;4.45;3.60;;;;;;;10.61;100.00;93382.03;2556564;23;20005;-82
2023/07/14 00:46:26;;;;;;;4.53;2.95;;;;;;;10.62;100.00;93391.56;2545525;23;20080;-81
2023/07/14 00:47:30;;;;;;;8.68;3.67;;;;;;;10.58;100.00;93381.69;2545625;23;20036;-80
2023/07/14 00:48:32;;;;;;;6.55;3.50;;;;;;;10.60;100.00;93383.97;2545227;23;20317;-83
2023/07/14 00:49:39;;;;;;;11.43;3.70;;;;;;;10.57;100.00;93384.75;2568440;23;20005;-82
2023/07/14 00:50:44;;;;;;;7.25;3.70;;;;;;;10.54;100.00;93378.34;2557548;23;20307;-82
2023/07/14 00:51:46;;;;;;;7.80;3.67;;;;;;;10.50;100.00;93377.63;2554577;23;20009;-80
2023/07/14 00:52:48;;;;;;;5.38;3.47;;;;;;;10.50;100.00;93377.63;2580559;23;19992;-81
2023/07/14 00:53:49;;;;;;;12.88;3.78;;;;;;;10.55;100.00;93374.50;2592000;23;20019;-82
2023/07/14 00:54:51;;;;;;;5.38;3.47;;;;;;;10.50;100.00;93372.28;2558792;23;20080;-81
2023/07/14 00:56:10;;;;;;;6.40;3.38;;;;;;;10.50;100.00;93374.22;2547422;23;20012;-80
2023/07/14 00:57:16;;;;;;;5.38;3.22;;;;;;;10.48;100.00;93376.53;2553890;23;20009;-82
2023/07/14 00:58:29;;;;;;;9.27;3.53;;;;;;;10.63;100.00;93372.47;2547893;23;20012;-83
2023/07/14 00:59:33;;;;;;;5.60;3.40;;;;;;;10.70;100.00;93369.63;2573365;23;20065;-82
2023/07/14 01:00:34;;;;;;;4.90;3.38;;;;;;;10.63;100.00;93375.13;2569980;23;20508;-82
2023/07/14 01:01:35;;;;;;;4.85;3.20;;;;;;;10.57;100.00;93366.06;2545598;23;20005;-82
2023/07/14 01:02:36;;;;;;;6.68;3.65;;;;;;;10.49;100.00;93378.81;2557417;23;20001;-81
2023/07/14 01:03:42;;;;;;;9.13;3.50;;;;;;;10.44;100.00;93376.59;2569770;23;20059;-82
2023/07/14 01:05:02;;;;;;;7.18;3.45;;;;;;;10.48;100.00;93366.59;2558867;23;20036;-81
2023/07/14 01:06:03;;;;;;;6.40;3.65;;;;;;;10.40;100.00;93367.13;2564902;23;20032;-81
2023/07/14 01:07:04;;;;;;;6.53;3.22;;;;;;;10.53;100.00;93368.03;2569627;23;20012;-81
2023/07/14 01:08:05;;;;;;;4.88;3.53;;;;;;;10.53;100.00;93368.78;2569317;23;20004;-80
2023/07/14 01:09:10;;;;;;;6.82;3.25;;;;;;;10.51;100.00;93360.44;2568894;23;20234;-81
2023/07/14 01:10:15;;;;;;;5.47;3.40;;;;;;;10.56;100.00;93365.31;2557475;23;20009;-82
2023/07/14 01:11:19;;;;;;;4.55;3.42;;;;;;;10.62;100.00;93370.19;2558074;23;20309;-83
2023/07/14 01:12:23;;;;;;;9.82;3.35;;;;;;;10.70;100.00;93366.22;2569533;23;20007;-82
2023/07/14 01:13:25;;;;;;;7.43;3.67;;;;;;;10.65;100.00;93358.66;2581741;22;20000;-83
2023/07/14 01:14:35;;;;;;;5.85;3.85;;;;;;;10.55;100.00;93355.03;2568193;23;20347;-82
2023/07/14 01:15:39;;;;;;;8.38;3.80;;;;;;;10.51;100.00;93360.44;2547370;23;20009;-80
2023/07/14 01:16:41;;;;;;;7.43;3.92;;;;;;;10.71;100.00;93360.47;2544990;23;20009;-81
2023/07/14 01:17:45;;;;;;;6.90;3.72;;;;;;;10.65;100.00;93356.75;2555777;23;20044;-81
2023/07/14 01:18:47;;;;;;;6.70;3.50;;;;;;;10.64;100.00;93357.91;2545019;23;20416;-82
2023/07/14 01:19:55;;;;;;;8.68;3.80;;;;;;;10.73;100.00;93358.13;2557211;23;20027;-82
2023/07/14 01:20:56;;;;;;;5.32;3.40;;;;;;;10.75;100.00;93361.13;2557269;23;20005;-80
2023/07/14 01:22:26;;;;;;;7.15;3.50;;;;;;;10.82;100.00;93362.94;2556484;23;20128;-81
2023/07/14 01:23:50;;;;;;;6.05;3.55;;;;;;;10.82;100.00;93358.34;2562053;23;20054;-82
2023/07/14 01:24:58;;;;;;;6.82;3.65;;;;;;;10.86;100.00;93357.53;2565762;23;20383;-81
2023/07/14 01:25:59;;;;;;;14.50;4.43;;;;;;;10.89;100.00;93351.34;2557911;23;20004;-83
2023/07/14 01:27:05;;;;;;;5.43;3.85;;;;;;;10.79;100.00;93351.13;2543772;23;20306;-82
2023/07/14 01:28:12;;;;;;;7.20;3.50;;;;;;;10.81;100.00;93346.16;2558267;23;20367;-81
2023/07/14 01:29:13;;;;;;;6.60;3.63;;;;;;;10.93;100.00;93352.81;2557196;23;20009;-82
2023/07/14 01:30:15;;;;;;;6.25;3.63;;;;;;;10.92;100.00;93345.94;2543905;23;20009;-81
2023/07/14 01:31:23;;;;;;;6.55;3.97;;;;;;;10.94;100.00;93354.31;2557166;23;20467;-83
2023/07/14 01:32:31;;;;;;;6.45;3.75;;;;;;;10.94;100.00;93351.63;2557156;23;20024;-82
2023/07/14 01:33:32;;;;;;;4.18;3.63;;;;;;;10.98;100.00;93338.94;2558501;23;20478;-81
2023/07/14 01:34:33;;;;;;;11.25;3.88;;;;;;;10.95;100.00;93350.47;2568033;23;20032;-82
2023/07/14 01:35:39;;;;;;;4.78;3.70;;;;;;;10.88;100.00;93347.16;2568478;23;20032;-81
2023/07/14 01:36:42;;;;;;;7.88;3.83;;;;;;;10.88;100.00;93342.56;2557018;23;20012;-81
2023/07/14 01:37:44;;;;;;;7.28;3.65;;;;;;;10.87;100.00;93343.00;2544468;23;20029;-81
2023/07/14 01:38:46;;;;;;;11.15;3.80;;;;;;;10.84;100.00;93347.22;2544261;23;20009;-81
2023/07/14 01:39:50;;;;;;;6.25;4.03;;;;;;;10.83;100.00;93346.47;2556260;23;20004;-82
2023/07/14 01:40:52;;;;;;;5.57;3.63;;;;;;;10.83;100.00;93343.03;2569080;23;20020;-81
2023/07/14 01:41:53;;;;;;;6.03;3.83;;;;;;;10.83;100.00;93338.44;2569044;23;20008;-80
2023/07/14 01:42:58;;;;;;;7.97;4.15;;;;;;;10.81;100.00;93343.47;2568656;23;20027;-81
2023/07/14 01:44:03;;;;;;;7.28;3.72;;;;;;;10.79;100.00;93335.09;2556289;23;20101;-81
2023/07/14 01:45:09;;;;;;;6.43;3.38;;;;;;;10.81;100.00;93337.38;2545593;23;20013;-82
2023/07/14 01:46:19;;;;;;;7.80;4.07;;;;;;;10.77;100.00;93336.69;2568870;23;20005;-80
2023/07/14 01:47:22;;;;;;;4.82;3.67;;;;;;;10.71;100.00;93333.75;2570180;23;20086;-81
2023/07/14 01:48:36;;;;;;;6.03;3.50;;;;;;;10.71;100.00;93335.63;2556204;23;20004;-81
2023/07/14 01:49:41;;;;;;;6.07;3.97;;;;;;;10.56;100.00;93335.16;2549341;23;20017;-80
2023/07/14 01:50:47;;;;;;;6.70;3.72;;;;;;;10.54;100.00;93332.16;2557706;23;20012;-80
2023/07/14 01:51:50;;;;;;;5.43;3.72;;;;;;;10.68;100.00;93328.44;2569478;23;20051;-83
2023/07/14 01:52:56;;;;;;;5.32;3.67;;;;;;;10.61;100.00;93332.00;2580902;23;20038;-82
2023/07/14 01:54:26;;;;;;;5.68;3.40;;;;;;;10.61;100.00;93329.31;2568204;23;20008;-81
2023/07/14 01:55:34;;;;;;;8.02;4.03;;;;;;;10.54;100.00;93338.25;2561598;23;20004;-83
2023/07/14 01:56:37;;;;;;;6.25;3.90;;;;;;;10.56;100.00;93335.16;2546508;23;20009;-81
2023/07/14 01:57:40;;;;;;;9.13;4.32;;;;;;;10.52;100.00;93326.44;2544372;23;20080;-83
2023/07/14 01:58:56;;;;;;;6.28;4.15;;;;;;;10.45;100.00;93334.59;2556451;23;20004;-81
2023/07/14 02:00:06;;;;;;;7.82;4.00;;;;;;;10.45;100.00;93332.69;2571538;23;20423;-81
2023/07/14 02:01:11;;;;;;;6.55;3.63;;;;;;;10.48;100.00;93328.41;2568149;23;20296;-81
2023/07/14 02:02:22;;;;;;;8.43;3.67;;;;;;;10.56;100.00;93327.13;2556632;23;20005;-81
2023/07/14 02:03:36;;;;;;;6.95;3.80;;;;;;;10.58;100.00;93324.81;2559960;23;20084;-81
2023/07/14 02:04:39;;;;;;;6.28;3.80;;;;;;;10.54;100.00;93327.56;2558055;23;20009;-83
2023/07/14 02:05:40;;;;;;;5.95;3.58;;;;;;;10.49;100.00;93322.69;2568753;23;20490;-81
2023/07/14 02:06:41;;;;;;;7.72;3.70;;;;;;;10.44;100.00;93325.81;2555537;23;20043;-82
2023/07/14 02:07:42;;;;;;;5.57;3.97;;;;;;;10.47;100.00;93324.25;2555925;23;20028;-83
2023/07/14 02:08:46;;;;;;;5.53;3.75;;;;;;;10.41;100.00;93332.00;2555867;23;20015;-84
2023/07/14 02:09:48;;;;;;;6.32;3.88;;;;;;;10.37;100.00;93328.63;2569157;23;20080;-81
2023/07/14 02:10:49;;;;;;;4.95;3.47;;;;;;;10.38;100.00;93324.78;2568410;23;20016;-82
2023/07/14 02:11:55;;;;;;;9.48;4.35;;;;;;;10.37;100.00;93327.88;2568299;23;20020;-80
2023/07/14 02:12:56;;;;;;;6.57;3.80;;;;;;;10.36;100.00;93334.34;2569088;23;19996;-81
2023/07/14 02:13:57;;;;;;;6.20;4.00;;;;;;;10.36;100.00;93337.03;2568074;23;20011;-82
2023/07/14 02:15:03;;;;;;;9.55;4.00;;;;;;;10.32;100.00;93337.88;2555588;23;20056;-85
2023/07/14 02:16:04;;;;;;;6.00;3.92;;;;;;;10.31;100.00;93336.34;2580682;23;20003;-82
2023/07/14 02:17:15;;;;;;;7.85;3.80;;;;;;;10.32;100.00;93332.53;2568009;23;20005;-81
2023/07/14 02:18:20;;;;;;;7.13;3.88;;;;;;;10.28;100.00;93337.16;2559909;23;20009;-81
2023/07/14 02:19:24;;;;;;;6.13;4.40;;;;;;;10.28;100.00;93325.72;2580632;23;20035;-81
2023/07/14 02:32:31;;;;;;;;;;;;;;;9.76;100.00;93323.50;2595575;22;20493;-83
2023/07/14 02:33:37;;;;;;;5.40;4.18;;;;;;;9.77;100.00;93322.31;2559142;23;19963;-82
2023/07/14 02:34:48;;;;;;;11.27;4.85;;;;;;;9.86;100.00;93322.56;2547821;23;20428;-82
2023/07/14 02:36:07;;;;;;;5.10;4.32;;;;;;;9.87;100.00;93313.38;2539055;23;20012;-83
2023/07/14 02:38:00;;;;;;;11.38;4.50;;;;;;;9.87;100.00;93313.38;2562732;23;20351;-80
2023/07/14 02:38:58;;;;;;;8.52;4.20;;;;;;;9.83;100.00;93318.81;2567809;23;20489;-81
2023/07/14 02:40:00;;;;;;;7.75;4.72;;;;;;;9.84;100.00;93312.28;2547356;23;20439;-81
2023/07/14 02:41:27;;;;;;;6.90;4.38;;;;;;;9.84;100.00;93314.22;2559146;23;20004;-82
2023/07/14 02:42:29;;;;;;;9.73;4.45;;;;;;;9.81;100.00;93317.69;2558090;23;20008;-83
2023/07/14 02:43:29;;;;;;;7.95;4.10;;;;;;;9.84;100.00;93314.97;2546952;23;20093;-83
2023/07/14 02:44:37;;;;;;;7.70;4.35;;;;;;;9.80;100.00;93324.19;2546196;23;20013;-83
2023/07/14 02:46:06;;;;;;;4.35;3.40;;;;;;;9.79;100.00;93307.41;2561004;23;20009;-82
2023/07/14 02:47:15;;;;;;;5.80;4.18;;;;;;;9.79;100.00;93317.34;2558996;23;20005;-83
2023/07/14 02:48:22;;;;;;;7.57;3.83;;;;;;;9.77;100.00;93311.66;2561124;23;20013;-83
2023/07/14 02:49:23;;;;;;;8.27;4.47;;;;;;;9.79;100.00;93315.44;2558946;23;20469;-81
2023/07/14 02:50:24;;;;;;;8.43;4.38;;;;;;;9.86;100.00;93311.88;2559085;23;20032;-83
2023/07/14 02:51:25;;;;;;;7.78;3.85;;;;;;;9.83;100.00;93313.47;2546498;23;20048;-83
2023/07/14 02:52:26;;;;;;;9.38;4.18;;;;;;;9.87;100.00;93305.38;2547220;23;20468;-83
2023/07/14 02:53:27;;;;;;;7.05;3.95;;;;;;;9.85;100.00;93307.72;2547311;23;20425;-84
2023/07/14 02:54:28;;;;;;;7.97;3.90;;;;;;;9.85;100.00;93302.38;2534568;23;20013;-83
2023/07/14 02:55:29;;;;;;;4.43;3.78;;;;;;;9.79;100.00;93309.34;2534789;23;20049;-82
2023/07/14 02:56:31;;;;;;;5.63;3.63;;;;;;;9.71;100.00;93308.69;2559564;23;20012;-83
2023/07/14 02:57:32;;;;;;;8.07;4.47;;;;;;;9.72;100.00;93306.78;2571501;23;20075;-84
2023/07/14 02:58:34;;;;;;;10.27;4.10;;;;;;;9.71;100.00;93313.28;2572038;23;20009;-83
2023/07/14 02:59:35;;;;;;;7.18;4.05;;;;;;;9.57;100.00;93312.31;2546742;23;20013;-81
2023/07/14 03:00:36;;;;;;;6.18;3.67;;;;;;;9.59;100.00;93303.91;2534775;23;20002;-84
2023/07/14 03:01:37;;;;;;;9.68;3.72;;;;;;;9.58;100.00;93300.50;2547151;23;20107;-84
2023/07/14 03:02:38;;;;;;;8.20;4.10;;;;;;;9.58;100.00;93303.16;2547083;23;20009;-83
2023/07/14 03:03:39;;;;;;;5.97;3.58;;;;;;;9.68;100.00;93300.72;2559458;23;20126;-83
2023/07/14 03:04:40;;;;;;;6.47;3.88;;;;;;;9.58;100.00;93302.41;2558465;23;20009;-84
2023/07/14 03:05:43;;;;;;;7.05;3.65;;;;;;;9.55;100.00;93303.19;2546349;23;20025;-82
2023/07/14 03:06:44;;;;;;;7.00;3.95;;;;;;;9.61;100.00;93300.81;2535568;23;20484;-83
2023/07/14 03:07:45;;;;;;;6.63;3.60;;;;;;;9.70;100.00;93301.84;2534564;23;20005;-81
2023/07/14 03:08:46;;;;;;;6.30;3.90;;;;;;;9.62;100.00;93307.69;2534732;23;20006;-83
2023/07/14 03:09:48;;;;;;;6.53;3.78;;;;;;;9.55;100.00;93303.97;2534966;23;20013;-82
2023/07/14 03:10:56;;;;;;;9.27;3.90;;;;;;;9.53;100.00;93303.63;2534736;23;20008;-82
2023/07/14 03:11:58;;;;;;;6.20;3.72;;;;;;;9.45;100.00;93299.53;2550236;23;20029;-83
2023/07/14 03:12:59;;;;;;;7.45;3.42;;;;;;;9.42;100.00;93302.25;2559262;23;20001;-82
2023/07/14 03:14:00;;;;;;;7.80;3.83;;;;;;;9.52;100.00;93298.66;2546693;23;20300;-83
2023/07/14 03:15:01;;;;;;;7.15;4.38;;;;;;;9.47;100.00;93291.88;2547008;23;20008;-84
2023/07/14 03:16:03;;;;;;;7.03;3.78;;;;;;;9.37;100.00;93295.47;2558826;23;20012;-82
2023/07/14 03:17:04;;;;;;;8.80;3.95;;;;;;;9.40;100.00;93286.66;2559182;23;20015;-85
2023/07/14 03:18:05;;;;;;;8.35;3.70;;;;;;;9.30;100.00;93290.22;2559170;23;20007;-83
2023/07/14 03:19:06;;;;;;;6.63;3.90;;;;;;;9.29;100.00;93281.47;2546850;23;20006;-82
2023/07/14 03:20:10;;;;;;;7.93;3.65;;;;;;;9.43;100.00;93290.41;2534756;23;20006;-82
2023/07/14 03:21:12;;;;;;;6.95;3.63;;;;;;;9.45;100.00;93282.78;2536066;23;20005;-82
2023/07/14 03:22:13;;;;;;;8.38;4.20;;;;;;;9.36;100.00;93280.63;2547085;23;20449;-82
2023/07/14 03:23:14;;;;;;;6.75;3.60;;;;;;;9.39;100.00;93282.47;2558980;23;20001;-82
2023/07/14 03:24:15;;;;;;;4.95;3.70;;;;;;;9.41;100.00;93279.41;2559335;23;20824;-85
2023/07/14 03:25:16;;;;;;;7.43;3.80;;;;;;;9.35;100.00;93279.13;2559137;23;20551;-84
2023/07/14 03:26:17;;;;;;;7.05;3.47;;;;;;;9.31;100.00;93278.41;2571099;23;20008;-82
2023/07/14 03:27:18;;;;;;;9.15;3.70;;;;;;;9.33;100.00;93284.84;2558691;23;20000;-83
2023/07/14 03:28:19;;;;;;;8.75;4.20;;;;;;;9.29;100.00;93278.78;2534973;23;20033;-83
2023/07/14 03:29:20;;;;;;;9.70;4.38;;;;;;;9.32;100.00;93267.31;2546932;23;20041;-84
2023/07/14 03:30:21;;;;;;;5.13;3.60;;;;;;;9.36;100.00;93272.63;2559296;23;20501;-81
2023/07/14 03:31:22;;;;;;;6.25;3.83;;;;;;;9.38;100.00;93267.63;2559186;23;20051;-83
2023/07/14 03:32:23;;;;;;;4.63;3.40;;;;;;;9.42;100.00;93275.56;2558555;23;20013;-81
2023/07/14 03:33:24;;;;;;;7.72;4.20;;;;;;;9.39;100.00;93271.03;2544021;23;20141;-81
2023/07/14 03:34:25;;;;;;;5.90;3.90;;;;;;;9.28;100.00;93274.63;2543781;23;20010;-81
2023/07/14 03:35:26;;;;;;;7.32;3.40;;;;;;;9.35;100.00;93268.44;2544841;23;20085;-82
2023/07/14 03:36:27;;;;;;;9.65;4.07;;;;;;;9.39;100.00;93266.44;2557820;23;20329;-81
2023/07/14 03:37:28;;;;;;;4.82;3.45;;;;;;;9.29;100.00;93265.47;2557540;23;20009;-80
2023/07/14 03:38:29;;;;;;;5.70;3.65;;;;;;;9.29;100.00;93272.72;2557436;23;20016;-83
2023/07/14 03:39:30;;;;;;;7.15;3.72;;;;;;;9.50;100.00;93271.66;2544946;23;20009;-81
2023/07/14 03:40:31;;;;;;;5.90;3.90;;;;;;;9.43;100.00;93275.16;2532641;23;20009;-82
2023/07/14 03:41:32;;;;;;;4.68;3.40;;;;;;;9.32;100.00;93279.91;2532296;23;20326;-83
2023/07/14 03:42:34;;;;;;;5.57;3.67;;;;;;;9.26;100.00;93276.16;2544639;23;20005;-82
2023/07/14 03:43:35;;;;;;;6.80;3.83;;;;;;;9.24;100.00;93273.91;2532519;23;20056;-82
2023/07/14 03:44:36;;;;;;;7.82;4.55;;;;;;;9.22;100.00;93281.59;2544388;23;20009;-82
2023/07/14 03:45:37;;;;;;;8.40;4.03;;;;;;;9.27;100.00;93277.69;2569065;23;20001;-82
2023/07/14 03:46:38;;;;;;;5.82;3.95;;;;;;;9.28;100.00;93276.53;2569075;23;20406;-82
2023/07/14 03:47:39;;;;;;;8.60;3.95;;;;;;;9.27;100.00;93277.69;2544114;23;20311;-80
2023/07/14 03:48:40;;;;;;;6.68;3.90;;;;;;;9.32;100.00;93275.34;2544680;23;20009;-81
2023/07/14 03:49:41;;;;;;;8.13;3.95;;;;;;;9.28;100.00;93279.97;2556152;23;20005;-82
2023/07/14 03:50:43;;;;;;;10.52;3.88;;;;;;;9.26;100.00;93266.28;2556130;23;20028;-80
2023/07/14 03:51:44;;;;;;;5.57;4.03;;;;;;;9.27;100.00;93269.69;2544427;23;20029;-82
2023/07/14 03:52:45;;;;;;;9.27;3.85;;;;;;;9.27;100.00;93264.38;2544137;23;20005;-82
2023/07/14 03:53:46;;;;;;;7.95;3.50;;;;;;;9.27;100.00;93267.78;2568864;23;20004;-84
2023/07/14 03:54:47;;;;;;;11.10;4.38;;;;;;;9.28;100.00;93271.22;2569349;23;20055;-82
2023/07/14 03:55:48;;;;;;;5.53;3.83;;;;;;;9.27;100.00;93267.78;2556201;23;20004;-83
2023/07/14 03:56:52;;;;;;;4.80;4.00;;;;;;;9.22;100.00;93264.78;2556393;23;20004;-82
2023/07/14 03:57:55;;;;;;;6.15;3.55;;;;;;;9.29;100.00;93270.78;2568363;23;20008;-82
2023/07/14 03:58:56;;;;;;;9.32;4.00;;;;;;;9.21;100.00;93264.03;2556302;23;20004;-82
2023/07/14 03:59:57;;;;;;;13.85;4.40;;;;;;;9.28;100.00;93269.28;2544044;23;20001;-82
2023/07/14 04:01:00;;;;;;;6.47;3.50;;;;;;;9.26;100.00;93266.28;2539613;23;19998;-85
2023/07/14 04:02:01;;;;;;;5.97;3.78;;;;;;;9.25;100.00;93264.75;2568714;23;20008;-83
2023/07/14 04:03:02;;;;;;;8.60;4.10;;;;;;;9.23;100.00;93267.09;2555740;23;20013;-81
2023/07/14 04:04:03;;;;;;;7.20;4.07;;;;;;;9.26;100.00;93263.63;2535846;23;20010;-82
2023/07/14 04:05:07;;;;;;;5.90;4.20;;;;;;;9.25;100.00;93264.00;2534501;23;20056;-83
2023/07/14 04:06:08;;;;;;;5.63;3.50;;;;;;;9.25;100.00;93270.09;2547980;23;20009;-83
2023/07/14 04:07:09;;;;;;;10.68;3.95;;;;;;;9.44;100.00;93273.25;2571188;23;20024;-82
2023/07/14 04:08:10;;;;;;;5.75;3.70;;;;;;;9.40;100.00;93272.56;2558589;23;20015;-84
2023/07/14 04:09:11;;;;;;;8.15;3.67;;;;;;;9.37;100.00;93263.44;2546077;23;20005;-83
2023/07/14 04:10:12;;;;;;;8.98;3.78;;;;;;;9.35;100.00;93271.13;2533629;23;20078;-82
2023/07/14 04:11:13;;;;;;;9.65;3.90;;;;;;;9.33;100.00;93270.75;2533366;23;20155;-82
2023/07/14 04:12:14;;;;;;;8.82;4.30;;;;;;;9.36;100.00;93269.94;2556547;23;20013;-82
2023/07/14 04:13:15;;;;;;;6.60;4.18;;;;;;;9.29;100.00;93276.13;2552782;23;20005;-82
2023/07/14 04:14:16;;;;;;;8.88;3.72;;;;;;;9.29;100.00;93272.72;2539187;23;20113;-83
2023/07/14 04:15:19;;;;;;;7.25;3.60;;;;;;;9.27;100.00;93267.78;2540422;23;20008;-82
2023/07/14 04:16:23;;;;;;;6.65;3.85;;;;;;;9.23;100.00;93263.66;2530835;23;20171;-83
2023/07/14 04:17:24;;;;;;;8.27;3.83;;;;;;;9.26;100.00;93266.28;2529057;23;20005;-84
2023/07/14 04:18:26;;;;;;;7.03;3.58;;;;;;;9.26;100.00;93268.94;2526661;23;20018;-82
2023/07/14 04:19:26;;;;;;;9.02;4.20;;;;;;;9.37;100.00;93271.44;2540815;23;20036;-83
2023/07/14 04:20:28;;;;;;;11.18;4.40;;;;;;;9.39;100.00;93261.13;2541056;23;20458;-83
2023/07/14 04:21:30;;;;;;;6.25;3.80;;;;;;;9.36;100.00;93266.53;2540046;23;20768;-82
2023/07/14 04:22:31;;;;;;;10.38;3.85;;;;;;;9.33;100.00;93265.41;2553097;23;20067;-83
2023/07/14 04:23:33;;;;;;;6.18;4.13;;;;;;;9.33;100.00;93263.50;2552901;23;20015;-82
2023/07/14 04:24:35;;;;;;;11.35;4.10;;;;;;;9.34;100.00;93264.25;2528377;23;20044;-83
2023/07/14 04:25:36;;;;;;;7.28;4.15;;;;;;;9.39;100.00;93260.38;2540442;23;20005;-85
2023/07/14 04:26:36;;;;;;;7.82;3.97;;;;;;;9.45;100.00;93267.53;2552675;23;20043;-83
2023/07/14 04:27:38;;;;;;;6.00;3.65;;;;;;;9.47;100.00;93259.84;2540454;23;20005;-82
2023/07/14 04:28:39;;;;;;;5.93;4.30;;;;;;;9.51;100.00;93254.47;2541067;23;20105;-82
2023/07/14 04:29:40;;;;;;;7.00;3.85;;;;;;;9.58;100.00;93260.47;2541241;23;20009;-83
2023/07/14 04:30:41;;;;;;;8.27;3.95;;;;;;;9.53;100.00;93258.25;2528695;23;20100;-82
2023/07/14 04:31:42;;;;;;;8.50;4.07;;;;;;;9.59;100.00;93253.94;2528033;23;20014;-84
2023/07/14 04:32:43;;;;;;;6.80;3.90;;;;;;;9.63;100.00;93255.81;2528948;23;20030;-82
2023/07/14 04:33:49;;;;;;;9.52;4.15;;;;;;;9.67;100.00;93248.50;2529164;23;20010;-82
2023/07/14 04:34:51;;;;;;;8.45;4.00;;;;;;;9.64;100.00;93255.41;2530457;23;20002;-83
2023/07/14 04:35:54;;;;;;;11.05;4.65;;;;;;;9.70;100.00;93250.34;2553916;23;20015;-83
2023/07/14 04:36:56;;;;;;;6.68;4.63;;;;;;;9.70;100.00;93261.81;2565353;23;20005;-80
2023/07/14 04:37:58;;;;;;;10.05;4.35;;;;;;;9.75;100.00;93260.59;2553555;23;20448;-81
2023/07/14 04:39:01;;;;;;;8.75;4.22;;;;;;;9.75;100.00;93256.00;2554003;23;20013;-79
2023/07/14 04:40:05;;;;;;;7.80;4.20;;;;;;;9.88;100.00;93258.84;2554079;23;20463;-80
2023/07/14 04:41:05;;;;;;;9.38;4.95;;;;;;;9.93;100.00;93247.69;2554206;23;20068;-80
2023/07/14 04:42:07;;;;;;;6.22;4.45;;;;;;;9.95;100.00;93261.38;2553042;23;20125;-81
2023/07/14 04:43:08;;;;;;;7.63;4.63;;;;;;;9.96;100.00;93252.19;2541064;23;20386;-82
2023/07/14 04:44:13;;;;;;;12.13;5.10;;;;;;;10.04;100.00;93253.59;2529367;23;20041;-80
2023/07/14 04:45:16;;;;;;;9.35;4.97;;;;;;;10.15;100.00;93247.31;2530090;23;20048;-81
2023/07/14 04:46:17;;;;;;;10.85;4.78;;;;;;;10.15;100.00;93247.31;2541148;23;20104;-80
2023/07/14 04:47:18;;;;;;;6.80;4.70;;;;;;;10.16;100.00;93244.22;2553184;23;20364;-80
2023/07/14 04:48:23;;;;;;;11.85;4.60;;;;;;;10.20;100.00;93239.59;2542432;23;20084;-81
2023/07/14 04:49:25;;;;;;;10.85;4.82;;;;;;;10.19;100.00;93235.41;2544102;23;20019;-78
2023/07/14 04:50:35;;;;;;;9.75;4.60;;;;;;;10.26;100.00;93229.19;2544102;23;20021;-81
2023/07/14 04:51:57;;;;;;;9.18;4.78;;;;;;;10.25;100.00;93227.69;2545707;23;20122;-82
2023/07/14 04:53:30;;;;;;;9.80;5.38;;;;;;;10.32;100.00;93232.91;2548549;23;20399;-80
2023/07/14 04:54:32;;;;;;;11.82;5.28;;;;;;;10.41;100.00;93224.34;2546740;23;20013;-80
2023/07/14 04:55:36;;;;;;;12.68;5.43;;;;;;;10.45;100.00;93225.78;2541761;23;20005;-79
2023/07/14 04:56:39;;;;;;;13.95;6.07;;;;;;;10.61;100.00;93221.66;2542906;23;20013;-82
2023/07/14 04:57:40;;;;;;;15.90;5.22;;;;;;;10.59;100.00;93222.06;2540959;23;20458;-80
2023/07/14 04:58:41;;;;;;;14.52;5.32;;;;;;;10.56;100.00;93223.66;2529399;23;20013;-79
2023/07/14 04:59:43;;;;;;;8.27;4.65;;;;;;;10.59;100.00;93225.50;2541116;23;20037;-79
2023/07/14 05:00:46;;;;;;;12.88;5.40;;;;;;;10.64;100.00;93228.84;2553212;23;20041;-81
2023/07/14 05:01:48;;;;;;;9.80;5.28;;;;;;;10.65;100.00;93228.44;2541142;23;20009;-79
2023/07/14 05:02:49;;;;;;;13.70;5.35;;;;;;;10.69;100.00;93223.78;2528880;23;20460;-79
2023/07/14 05:03:50;;;;;;;10.82;5.30;;;;;;;10.73;100.00;93229.81;2528946;23;20385;-82
2023/07/14 05:05:13;;;;;;;9.70;5.00;;;;;;;10.79;100.00;93233.47;2528789;23;20077;-81
2023/07/14 05:06:14;;;;;;;13.90;5.68;;;;;;;10.77;100.00;93233.16;2549969;23;20036;-80
2023/07/14 05:07:18;;;;;;;13.82;5.32;;;;;;;10.80;100.00;93229.66;2541056;23;20385;-80
2023/07/14 05:08:19;;;;;;;10.93;5.20;;;;;;;10.81;100.00;93235.75;2530080;23;20532;-80
2023/07/14 05:09:20;;;;;;;11.70;5.20;;;;;;;10.87;100.00;93231.44;2528441;23;20010;-80
2023/07/14 05:10:24;;;;;;;11.70;5.25;;;;;;;10.89;100.00;93239.03;2542983;23;20015;-83